createdAt,value
2022-11-26T00:02:23.469Z,8.62
2022-11-26T00:04:50.872Z,8.60
2022-11-26T00:07:26.122Z,8.57
2022-11-26T00:09:55.180Z,8.52
2022-11-26T00:12:28.072Z,8.51
2022-11-26T00:14:55.172Z,8.51
2022-11-26T00:17:21.957Z,8.50
2022-11-26T00:19:48.565Z,8.50
2022-11-26T00:22:25.846Z,8.52
2022-11-26T00:24:54.145Z,8.54
2022-11-26T00:27:22.309Z,8.57
2022-11-26T00:29:48.862Z,8.59
2022-11-26T00:32:17.723Z,8.60
2022-11-26T00:34:44.326Z,8.62
2022-11-26T00:37:24.524Z,8.62
2022-11-26T00:39:51.558Z,8.60
2022-11-26T00:42:18.871Z,8.52
2022-11-26T00:44:45.852Z,8.43
2022-11-26T00:47:12.533Z,8.34
2022-11-26T00:49:39.311Z,8.23
2022-11-26T00:52:27.276Z,8.12
2022-11-26T00:54:56.047Z,8.05
2022-11-26T00:57:22.887Z,8.02
2022-11-26T00:59:49.429Z,8.01
2022-11-26T01:02:16.036Z,7.97
2022-11-26T01:04:42.720Z,7.90
2022-11-26T01:07:10.893Z,7.84
2022-11-26T01:09:38.682Z,7.77
2022-11-26T01:12:11.650Z,7.74
2022-11-26T01:14:38.600Z,7.70
2022-11-26T01:17:05.924Z,7.63
2022-11-26T01:19:32.506Z,7.56
2022-11-26T01:21:59.139Z,7.50
2022-11-26T01:24:25.871Z,7.44
2022-11-26T01:26:52.565Z,7.38
2022-11-26T01:29:20.083Z,7.35
2022-11-26T01:31:47.301Z,7.33
2022-11-26T01:34:14.121Z,7.31
2022-11-26T01:36:42.573Z,7.32
2022-11-26T01:39:17.977Z,7.34
2022-11-26T01:42:25.093Z,7.28
2022-11-26T01:44:51.631Z,7.21
2022-11-26T01:47:25.026Z,7.14
2022-11-26T01:50:32.441Z,7.07
2022-11-26T01:53:09.832Z,6.99
2022-11-26T01:55:41.128Z,6.94
2022-11-26T01:58:12.502Z,6.89
2022-11-26T02:00:39.760Z,6.88
2022-11-26T02:03:07.587Z,6.84
2022-11-26T02:05:41.689Z,6.85
2022-11-26T02:08:10.632Z,6.81
2022-11-26T02:10:37.461Z,6.78
2022-11-26T02:13:04.872Z,6.79
2022-11-26T02:15:47.203Z,6.79
2022-11-26T02:18:14.971Z,6.77
2022-11-26T02:21:06.091Z,6.78
2022-11-26T02:24:08.513Z,6.82
2022-11-26T02:26:50.186Z,6.89
2022-11-26T02:30:04.646Z,6.88
2022-11-26T02:33:11.524Z,6.84
2022-11-26T02:35:46.447Z,6.82
2022-11-26T02:38:31.279Z,6.82
2022-11-26T02:40:57.936Z,6.78
2022-11-26T02:43:26.535Z,6.73
2022-11-26T02:45:56.440Z,6.69
2022-11-26T02:48:29.074Z,6.67
2022-11-26T02:51:00.216Z,6.63
2022-11-26T02:53:30.754Z,6.60
2022-11-26T02:56:07.960Z,6.57
2022-11-26T02:58:35.986Z,6.56
2022-11-26T03:01:07.116Z,6.55
2022-11-26T03:03:39.416Z,6.55
2022-11-26T03:06:09.862Z,6.58
2022-11-26T03:08:36.928Z,6.63
2022-11-26T03:11:04.015Z,6.64
2022-11-26T03:13:31.033Z,6.68
2022-11-26T03:15:57.809Z,6.74
2022-11-26T03:18:24.518Z,6.80
2022-11-26T03:20:52.497Z,6.85
2022-11-26T03:23:19.407Z,6.87
2022-11-26T03:25:45.971Z,6.84
2022-11-26T03:28:12.605Z,6.82
2022-11-26T03:30:39.197Z,6.83
2022-11-26T03:33:05.823Z,6.84
2022-11-26T03:35:32.584Z,6.84
2022-11-26T03:37:59.145Z,6.85
2022-11-26T03:40:25.759Z,6.84
2022-11-26T03:42:52.260Z,6.82
2022-11-26T03:45:18.904Z,6.79
2022-11-26T03:47:45.488Z,6.76
2022-11-26T03:50:12.488Z,6.71
2022-11-26T03:52:39.089Z,6.65
2022-11-26T03:55:06.378Z,6.60
2022-11-26T03:57:33.120Z,6.55
2022-11-26T03:59:59.710Z,6.50
2022-11-26T04:02:26.482Z,6.47
2022-11-26T04:04:53.238Z,6.42
2022-11-26T04:07:20.199Z,6.36
2022-11-26T04:09:46.773Z,6.32
2022-11-26T04:12:13.394Z,6.31
2022-11-26T04:14:40.632Z,6.30
2022-11-26T04:17:07.379Z,6.27
2022-11-26T04:19:34.228Z,6.25
2022-11-26T04:22:00.822Z,6.22
2022-11-26T04:24:27.566Z,6.19
2022-11-26T04:26:54.071Z,6.16
2022-11-26T04:29:20.626Z,6.10
2022-11-26T04:31:48.064Z,6.07
2022-11-26T04:34:14.649Z,6.02
2022-11-26T04:36:41.153Z,5.97
2022-11-26T04:39:08.006Z,5.93
2022-11-26T04:41:34.505Z,5.89
2022-11-26T04:44:01.274Z,5.87
2022-11-26T04:46:27.803Z,5.85
2022-11-26T04:48:54.647Z,5.91
2022-11-26T04:51:21.283Z,5.96
2022-11-26T04:53:47.884Z,6.03
2022-11-26T04:56:14.412Z,6.07
2022-11-26T04:58:41.068Z,6.06
2022-11-26T05:01:07.810Z,6.07
2022-11-26T05:03:36.156Z,6.08
2022-11-26T05:06:03.701Z,6.12
2022-11-26T05:08:30.329Z,6.14
2022-11-26T05:10:58.428Z,6.16
2022-11-26T05:13:25.084Z,6.14
2022-11-26T05:15:51.720Z,6.09
2022-11-26T05:18:18.280Z,6.01
2022-11-26T05:20:44.982Z,5.94
2022-11-26T05:23:11.882Z,5.90
2022-11-26T05:25:38.476Z,5.91
2022-11-26T05:28:05.314Z,5.89
2022-11-26T05:30:32.178Z,5.83
2022-11-26T05:32:58.847Z,5.77
2022-11-26T05:35:25.399Z,5.68
2022-11-26T05:37:51.977Z,5.61
2022-11-26T05:40:18.655Z,5.56
2022-11-26T05:42:45.378Z,5.55
2022-11-26T05:45:11.891Z,5.53
2022-11-26T05:47:38.687Z,5.53
2022-11-26T05:50:06.136Z,5.57
2022-11-26T05:52:32.714Z,5.59
2022-11-26T05:54:59.445Z,5.56
2022-11-26T05:57:26.054Z,5.55
2022-11-26T05:59:52.759Z,5.54
2022-11-26T06:02:19.539Z,5.51
2022-11-26T06:04:46.134Z,5.48
2022-11-26T06:07:12.786Z,5.49
2022-11-26T06:09:39.823Z,5.49
2022-11-26T06:12:06.924Z,5.53
2022-11-26T06:14:33.586Z,5.54
2022-11-26T06:17:00.623Z,5.54
2022-11-26T06:19:27.333Z,5.50
2022-11-26T06:21:53.840Z,5.44
2022-11-26T06:24:25.294Z,5.38
2022-11-26T06:26:51.898Z,5.32
2022-11-26T06:29:21.287Z,5.25
2022-11-26T06:31:50.074Z,5.19
2022-11-26T06:34:17.046Z,5.15
2022-11-26T06:36:43.735Z,5.13
2022-11-26T06:39:11.263Z,5.14
2022-11-26T06:41:38.187Z,5.17
2022-11-26T06:44:04.824Z,5.21
2022-11-26T06:46:34.804Z,5.27
2022-11-26T06:49:05.886Z,5.32
2022-11-26T06:51:33.460Z,5.34
2022-11-26T06:54:00.023Z,5.37
2022-11-26T06:56:26.619Z,5.40
2022-11-26T06:58:55.333Z,5.40
2022-11-26T07:01:25.106Z,5.43
2022-11-26T07:03:52.605Z,5.52
2022-11-26T07:06:27.799Z,5.54
2022-11-26T07:08:56.638Z,5.52
2022-11-26T07:11:24.658Z,5.51
2022-11-26T07:13:51.494Z,5.51
2022-11-26T07:16:18.264Z,5.52
2022-11-26T07:18:51.809Z,5.51
2022-11-26T07:21:20.027Z,5.49
2022-11-26T07:23:46.979Z,5.47
2022-11-26T07:26:14.489Z,5.45
2022-11-26T07:28:41.844Z,5.44
2022-11-26T07:31:16.840Z,5.44
2022-11-26T07:33:45.541Z,5.45
2022-11-26T07:36:17.944Z,5.44
2022-11-26T07:38:45.355Z,5.47
2022-11-26T07:41:14.914Z,5.52
2022-11-26T07:43:42.678Z,5.59
2022-11-26T07:46:12.032Z,5.66
2022-11-26T07:48:40.204Z,5.76
2022-11-26T07:51:08.665Z,5.81
2022-11-26T07:53:36.020Z,5.87
2022-11-26T07:56:06.328Z,5.87
2022-11-26T07:58:33.630Z,5.84
2022-11-26T08:01:12.350Z,5.81
2022-11-26T08:03:40.920Z,5.81
2022-11-26T08:06:10.550Z,5.79
2022-11-26T08:08:37.998Z,5.79
2022-11-26T08:11:11.278Z,5.81
2022-11-26T08:13:37.979Z,5.85
2022-11-26T08:16:04.822Z,5.89
2022-11-26T08:18:32.506Z,5.98
2022-11-26T08:20:59.358Z,6.10
2022-11-26T08:23:25.955Z,6.24
2022-11-26T08:26:20.615Z,6.38
2022-11-26T08:28:39.386Z,6.51
2022-11-26T08:31:08.760Z,6.62
2022-11-26T08:33:36.023Z,6.65
2022-11-26T08:36:08.339Z,6.68
2022-11-26T08:38:36.353Z,6.71
2022-11-26T08:41:06.716Z,6.79
2022-11-26T08:44:04.523Z,6.85
2022-11-26T08:46:22.794Z,6.86
2022-11-26T08:48:49.662Z,6.92
2022-11-26T08:51:17.487Z,7.07
2022-11-26T08:53:45.849Z,7.18
2022-11-26T08:56:13.006Z,7.28
2022-11-26T08:58:41.792Z,7.38
2022-11-26T09:01:13.910Z,7.45
2022-11-26T09:03:40.574Z,7.46
2022-11-26T09:06:08.283Z,7.47
2022-11-26T09:08:56.148Z,7.46
2022-11-26T09:11:23.607Z,7.45
2022-11-26T09:13:50.171Z,7.43
2022-11-26T09:16:16.897Z,7.39
2022-11-26T09:18:43.534Z,7.36
2022-11-26T09:21:10.135Z,7.31
2022-11-26T09:23:36.684Z,7.30
2022-11-26T09:26:03.324Z,7.31
2022-11-26T09:28:29.931Z,7.37
2022-11-26T09:31:00.047Z,7.48
2022-11-26T09:33:27.664Z,7.59
2022-11-26T09:35:54.249Z,7.63
2022-11-26T09:38:21.819Z,7.59
2022-11-26T09:41:05.675Z,7.56
2022-11-26T09:43:41.530Z,7.52
2022-11-26T09:46:12.102Z,7.52
2022-11-26T09:48:41.454Z,7.55
2022-11-26T09:51:12.418Z,7.63
2022-11-26T09:53:44.176Z,7.75
2022-11-26T09:56:19.377Z,7.79
2022-11-26T09:58:51.889Z,7.81
2022-11-26T10:01:21.853Z,7.84
2022-11-26T10:03:48.935Z,7.85
2022-11-26T10:06:34.020Z,7.86
2022-11-26T10:09:13.877Z,7.86
2022-11-26T10:11:52.517Z,7.85
2022-11-26T10:14:37.704Z,7.86
2022-11-26T10:17:29.571Z,7.87
2022-11-26T10:20:08.934Z,7.90
2022-11-26T10:22:46.073Z,7.96
2022-11-26T10:25:19.743Z,8.00
2022-11-26T10:27:49.032Z,8.03
2022-11-26T10:30:22.304Z,8.05
2022-11-26T10:32:53.756Z,8.08
2022-11-26T10:35:23.675Z,8.11
2022-11-26T10:37:53.345Z,8.14
2022-11-26T10:40:32.975Z,8.20
2022-11-26T10:43:08.456Z,8.25
2022-11-26T10:45:41.677Z,8.31
2022-11-26T10:48:32.918Z,8.42
2022-11-26T10:51:30.169Z,8.53
2022-11-26T10:54:00.800Z,8.60
2022-11-26T10:56:43.007Z,8.63
2022-11-26T10:59:54.447Z,8.70
2022-11-26T11:02:41.085Z,8.78
2022-11-26T11:05:09.757Z,8.84
2022-11-26T11:07:39.700Z,8.89
2022-11-26T11:10:15.116Z,9.02
2022-11-26T11:12:45.877Z,9.13
2022-11-26T11:15:18.311Z,9.25
2022-11-26T11:17:47.197Z,9.29
2022-11-26T11:20:16.637Z,9.33
2022-11-26T11:22:45.569Z,9.35
2022-11-26T11:25:23.688Z,9.37
2022-11-26T11:27:51.173Z,9.36
2022-11-26T11:30:45.914Z,9.42
2022-11-26T11:33:27.659Z,9.47
2022-11-26T11:35:57.674Z,9.58
2022-11-26T11:38:27.258Z,9.60
2022-11-26T11:40:54.514Z,9.58
2022-11-26T11:43:23.695Z,9.68
2022-11-26T11:46:03.064Z,9.73
2022-11-26T11:48:52.396Z,9.76
2022-11-26T11:51:40.059Z,9.76
2022-11-26T11:54:29.604Z,9.80
2022-11-26T11:57:32.186Z,9.73
2022-11-26T12:00:15.271Z,9.77
2022-11-26T12:03:04.367Z,9.83
2022-11-26T12:05:38.099Z,9.85
2022-11-26T12:08:38.661Z,9.88
2022-11-26T12:11:58.525Z,9.87
2022-11-26T12:14:27.862Z,9.94
2022-11-26T12:17:03.102Z,10.00
2022-11-26T12:19:39.524Z,10.16
2022-11-26T12:22:19.614Z,10.19
2022-11-26T12:24:53.924Z,10.18
2022-11-26T12:27:44.766Z,10.10
2022-11-26T12:30:17.496Z,10.11
2022-11-26T12:32:52.897Z,10.18
2022-11-26T12:35:30.505Z,10.26
2022-11-26T12:38:01.539Z,10.27
2022-11-26T12:40:30.778Z,10.16
2022-11-26T12:43:06.734Z,10.04
2022-11-26T12:45:39.356Z,9.95
2022-11-26T12:48:18.896Z,9.86
2022-11-26T12:50:54.800Z,9.79
2022-11-26T12:53:47.390Z,9.73
2022-11-26T12:56:35.968Z,9.69
2022-11-26T12:59:09.509Z,9.68
2022-11-26T13:01:36.435Z,9.64
2022-11-26T13:04:35.569Z,9.60
2022-11-26T13:07:05.254Z,9.53
2022-11-26T13:09:42.460Z,9.49
2022-11-26T13:12:11.478Z,9.43
2022-11-26T13:15:03.002Z,9.39
2022-11-26T13:17:43.070Z,9.33
2022-11-26T13:20:56.548Z,9.33
2022-11-26T13:23:35.384Z,9.29
2022-11-26T13:26:26.973Z,9.27
2022-11-26T13:28:56.205Z,9.27
2022-11-26T13:31:26.529Z,9.21
2022-11-26T13:34:14.224Z,9.18
2022-11-26T13:37:12.754Z,9.15
2022-11-26T13:40:07.258Z,9.16
2022-11-26T13:42:52.950Z,9.15
2022-11-26T13:45:22.860Z,9.13
2022-11-26T13:47:58.667Z,9.11
2022-11-26T13:51:19.263Z,9.11
2022-11-26T13:53:57.732Z,9.11
2022-11-26T13:56:28.099Z,9.10
2022-11-26T13:59:01.009Z,9.08
2022-11-26T14:01:28.949Z,9.06
2022-11-26T14:03:56.933Z,9.05
2022-11-26T14:06:24.279Z,9.00
2022-11-26T14:08:53.399Z,8.99
2022-11-26T14:11:54.510Z,8.99
2022-11-26T14:14:24.530Z,8.99
2022-11-26T14:17:12.789Z,8.95
2022-11-26T14:19:39.417Z,8.92
2022-11-26T14:22:28.294Z,8.88
2022-11-26T14:24:58.051Z,8.81
2022-11-26T14:27:42.430Z,8.77
2022-11-26T14:30:09.046Z,8.74
2022-11-26T14:32:47.953Z,8.69
2022-11-26T14:35:38.195Z,8.63
2022-11-26T14:38:07.571Z,8.58
2022-11-26T14:40:36.729Z,8.52
2022-11-26T14:43:16.565Z,8.47
2022-11-26T14:45:45.380Z,8.48
2022-11-26T14:48:22.533Z,8.54
2022-11-26T14:50:50.986Z,8.57
2022-11-26T14:53:20.942Z,8.64
2022-11-26T14:55:49.707Z,8.66
2022-11-26T14:58:20.808Z,8.61
2022-11-26T15:01:06.222Z,8.52
2022-11-26T15:03:33.810Z,8.42
2022-11-26T15:06:00.554Z,8.31
2022-11-26T15:08:27.734Z,8.22
2022-11-26T15:10:57.235Z,8.16
2022-11-26T15:13:40.602Z,8.07
2022-11-26T15:16:28.054Z,7.96
2022-11-26T15:18:55.595Z,7.89
2022-11-26T15:21:25.602Z,7.83
2022-11-26T15:23:54.327Z,7.74
2022-11-26T15:26:22.839Z,7.67
2022-11-26T15:28:49.840Z,7.62
2022-11-26T15:31:16.625Z,7.55
2022-11-26T15:33:43.897Z,7.49
2022-11-26T15:36:16.049Z,7.42
2022-11-26T15:39:03.175Z,7.34
2022-11-26T15:41:30.464Z,7.28
2022-11-26T15:43:59.382Z,7.23
2022-11-26T15:46:35.475Z,7.16
2022-11-26T15:49:06.885Z,7.10
2022-11-26T15:51:58.926Z,7.05
2022-11-26T15:54:56.690Z,6.99
2022-11-26T15:57:27.491Z,6.93
2022-11-26T15:59:58.839Z,6.86
2022-11-26T16:02:31.150Z,6.82
2022-11-26T16:05:00.498Z,6.77
2022-11-26T16:07:32.700Z,6.72
2022-11-26T16:10:21.976Z,6.67
2022-11-26T16:13:07.415Z,6.61
2022-11-26T16:15:34.759Z,6.58
2022-11-26T16:18:04.700Z,6.54
2022-11-26T16:20:31.547Z,6.49
2022-11-26T16:22:59.792Z,6.44
2022-11-26T16:25:30.449Z,6.41
2022-11-26T16:28:15.386Z,6.37
2022-11-26T16:30:44.077Z,6.32
2022-11-26T16:33:11.176Z,6.28
2022-11-26T16:35:46.507Z,6.23
2022-11-26T16:38:24.827Z,6.20
2022-11-26T16:40:52.070Z,6.18
2022-11-26T16:43:19.384Z,6.15
2022-11-26T16:45:47.237Z,6.10
2022-11-26T16:48:31.867Z,6.06
2022-11-26T16:50:58.522Z,6.03
2022-11-26T16:53:27.692Z,5.98
2022-11-26T16:55:54.488Z,5.95
2022-11-26T16:58:27.003Z,5.92
2022-11-26T17:00:54.546Z,5.89
2022-11-26T17:03:24.830Z,5.88
2022-11-26T17:05:55.103Z,5.86
2022-11-26T17:08:22.344Z,5.81
2022-11-26T17:10:49.012Z,5.80
2022-11-26T17:13:15.671Z,5.78
2022-11-26T17:15:43.345Z,5.74
2022-11-26T17:18:21.661Z,5.71
2022-11-26T17:20:49.476Z,5.69
2022-11-26T17:23:16.373Z,5.65
2022-11-26T17:25:45.409Z,5.64
2022-11-26T17:28:15.911Z,5.65
2022-11-26T17:30:44.834Z,5.62
2022-11-26T17:33:11.752Z,5.59
2022-11-26T17:35:38.889Z,5.57
2022-11-26T17:38:19.656Z,5.56
2022-11-26T17:40:47.457Z,5.54
2022-11-26T17:43:14.877Z,5.51
2022-11-26T17:45:41.745Z,5.50
2022-11-26T17:48:13.429Z,5.50
2022-11-26T17:50:41.180Z,5.48
2022-11-26T17:53:07.959Z,5.47
2022-11-26T17:55:34.638Z,5.46
2022-11-26T17:58:01.631Z,5.46
2022-11-26T18:00:29.471Z,5.45
2022-11-26T18:02:59.486Z,5.44
2022-11-26T18:05:26.357Z,5.43
2022-11-26T18:07:53.379Z,5.41
2022-11-26T18:10:21.969Z,5.40
2022-11-26T18:12:49.496Z,5.39
2022-11-26T18:15:19.207Z,5.39
2022-11-26T18:17:48.335Z,5.38
2022-11-26T18:20:16.120Z,5.38
2022-11-26T18:22:43.379Z,5.38
2022-11-26T18:25:09.946Z,5.37
2022-11-26T18:27:36.665Z,5.37
2022-11-26T18:30:04.022Z,5.36
2022-11-26T18:32:30.704Z,5.35
2022-11-26T18:34:57.384Z,5.34
2022-11-26T18:37:24.377Z,5.34
2022-11-26T18:39:51.683Z,5.34
2022-11-26T18:45:11.937Z,5.34
2022-11-26T18:47:41.671Z,5.34
2022-11-26T18:50:08.792Z,5.34
2022-11-26T18:52:35.438Z,5.34
2022-11-26T18:55:04.787Z,5.34
2022-11-26T18:57:32.025Z,5.31
2022-11-26T18:59:58.675Z,5.31
2022-11-26T19:02:25.395Z,5.29
2022-11-26T19:04:52.916Z,5.28
2022-11-26T19:07:19.774Z,5.25
2022-11-26T19:09:46.392Z,5.24
2022-11-26T19:12:13.040Z,5.22
2022-11-26T19:14:39.783Z,5.19
2022-11-26T19:17:06.510Z,5.17
2022-11-26T19:19:33.466Z,5.15
2022-11-26T19:22:01.681Z,5.13
2022-11-26T19:24:30.225Z,5.10
2022-11-26T19:26:57.386Z,5.09
2022-11-26T19:29:24.187Z,5.06
2022-11-26T19:31:51.134Z,5.03
2022-11-26T19:34:17.977Z,5.01
2022-11-26T19:36:49.193Z,4.99
2022-11-26T19:39:17.105Z,4.97
2022-11-26T19:41:43.985Z,4.95
2022-11-26T19:44:11.837Z,4.94
2022-11-26T19:46:41.218Z,4.93
2022-11-26T19:49:12.187Z,4.91
2022-11-26T19:51:40.262Z,4.90
2022-11-26T19:54:08.167Z,4.90
2022-11-26T19:56:35.637Z,4.95
2022-11-26T19:59:02.951Z,5.00
2022-11-26T20:01:31.361Z,5.01
2022-11-26T20:04:00.055Z,5.00
2022-11-26T20:06:28.652Z,4.99
2022-11-26T20:08:56.144Z,4.97
2022-11-26T20:11:23.142Z,4.98
2022-11-26T20:13:50.421Z,4.97
2022-11-26T20:16:21.089Z,4.96
2022-11-26T20:18:48.434Z,4.96
2022-11-26T20:21:20.986Z,4.93
2022-11-26T20:23:49.565Z,4.92
2022-11-26T20:26:22.664Z,4.92
2022-11-26T20:28:49.949Z,4.90
2022-11-26T20:31:23.273Z,4.90
2022-11-26T20:33:52.604Z,4.92
2022-11-26T20:36:21.038Z,4.92
2022-11-26T20:38:51.693Z,4.92
2022-11-26T20:41:18.420Z,4.93
2022-11-26T20:43:45.756Z,4.92
2022-11-26T20:46:14.160Z,4.93
2022-11-26T20:48:44.476Z,4.92
2022-11-26T20:51:13.343Z,4.91
2022-11-26T20:53:41.149Z,4.92
2022-11-26T20:56:08.764Z,4.92
2022-11-26T20:58:36.067Z,4.92
2022-11-26T21:01:02.967Z,4.93
2022-11-26T21:03:29.826Z,4.90
2022-11-26T21:06:02.082Z,4.87
2022-11-26T21:08:28.788Z,4.84
2022-11-26T21:10:55.450Z,4.80
2022-11-26T21:13:22.759Z,4.77
2022-11-26T21:15:49.694Z,4.75
2022-11-26T21:18:16.896Z,4.74
2022-11-26T21:20:44.397Z,4.72
2022-11-26T21:23:13.000Z,4.70
2022-11-26T21:25:41.846Z,4.65
2022-11-26T21:28:10.414Z,4.61
2022-11-26T21:30:39.554Z,4.56
2022-11-26T21:33:09.467Z,4.51
2022-11-26T21:35:36.821Z,4.47
2022-11-26T21:38:05.841Z,4.43
2022-11-26T21:40:33.646Z,4.40
2022-11-26T21:43:00.476Z,4.36
2022-11-26T21:45:27.861Z,4.32
2022-11-26T21:47:54.700Z,4.27
2022-11-26T21:50:21.641Z,4.24
2022-11-26T21:52:48.338Z,4.20
2022-11-26T21:55:14.957Z,4.16
2022-11-26T21:57:41.557Z,4.14
2022-11-26T22:00:08.817Z,4.11
2022-11-26T22:02:35.930Z,4.07
2022-11-26T22:05:05.873Z,4.04
2022-11-26T22:07:32.810Z,4.00
2022-11-26T22:09:59.483Z,3.97
2022-11-26T22:12:26.103Z,3.96
2022-11-26T22:14:52.823Z,3.93
2022-11-26T22:17:19.484Z,3.91
2022-11-26T22:19:46.297Z,3.89
2022-11-26T22:22:12.914Z,3.86
2022-11-26T22:24:39.435Z,3.85
2022-11-26T22:27:05.973Z,3.83
2022-11-26T22:29:32.544Z,3.82
2022-11-26T22:31:59.149Z,3.81
2022-11-26T22:34:27.818Z,3.78
2022-11-26T22:36:54.297Z,3.77
2022-11-26T22:39:21.160Z,3.77
2022-11-26T22:41:48.722Z,3.77
2022-11-26T22:44:16.290Z,3.76
2022-11-26T22:46:43.597Z,3.74
2022-11-26T22:49:15.381Z,3.72
2022-11-26T22:51:42.355Z,3.70
2022-11-26T22:54:12.251Z,3.66
2022-11-26T22:56:38.937Z,3.65
2022-11-26T22:59:07.360Z,3.62
2022-11-26T23:01:36.249Z,3.59
2022-11-26T23:04:07.959Z,3.56
2022-11-26T23:06:38.714Z,3.55
2022-11-26T23:09:07.783Z,3.54
2022-11-26T23:11:37.095Z,3.55
2022-11-26T23:14:06.982Z,3.57
2022-11-26T23:16:36.112Z,3.59
2022-11-26T23:19:04.061Z,3.58
2022-11-26T23:21:34.415Z,3.56
2022-11-26T23:24:01.180Z,3.55
2022-11-26T23:26:32.051Z,3.50
2022-11-26T23:29:00.451Z,3.47
2022-11-26T23:31:34.307Z,3.41
2022-11-26T23:34:02.233Z,3.38
2022-11-26T23:36:29.818Z,3.33
2022-11-26T23:38:58.701Z,3.30
2022-11-26T23:41:25.310Z,3.28
2022-11-26T23:43:52.123Z,3.25
2022-11-26T23:46:30.006Z,3.20
2022-11-26T23:48:57.023Z,3.18
2022-11-26T23:51:29.327Z,3.15
2022-11-26T23:53:56.238Z,3.12
2022-11-26T23:56:28.904Z,3.10
2022-11-26T23:58:58.205Z,3.08
